Time;durP1;ratioP1;P1;durP2;ratioP2;P2;SDS_P1;SDS_P2;PMS_P1;PMS_P2;Temp;Humidity;BMP_temperature;BMP_pressure;BME280_temperature;BME280_humidity;BME280_pressure;Samples;Min_cycle;Max_cycle;Signal;HPM_P1;HPM_P2
2021/05/28 00:00:27;;;;;;;28.92;12.00;;;8.60;99.90;;;;;;5026430;28;20034;-61
2021/05/28 00:02:52;;;;;;;23.17;13.65;;;8.60;99.90;;;;;;5023158;28;20030;-61
2021/05/28 00:05:18;;;;;;;27.92;14.43;;;8.60;99.90;;;;;;5021633;28;20380;-61
2021/05/28 00:07:43;;;;;;;30.13;12.50;;;8.60;99.90;;;;;;5024054;28;20510;-61
2021/05/28 00:10:09;;;;;;;31.23;13.82;;;8.60;99.90;;;;;;5010876;28;20072;-61
2021/05/28 00:12:35;;;;;;;29.20;12.45;;;8.60;99.90;;;;;;5025862;28;20524;-61
2021/05/28 00:15:02;;;;;;;29.88;12.52;;;8.60;99.90;;;;;;5018601;28;20029;-60
2021/05/28 00:17:27;;;;;;;31.17;12.73;;;8.70;99.90;;;;;;5026581;28;20064;-61
2021/05/28 00:19:53;;;;;;;26.38;12.88;;;8.60;99.90;;;;;;5012958;28;20045;-61
2021/05/28 00:22:18;;;;;;;24.33;11.77;;;8.60;99.90;;;;;;5025077;28;20028;-61
2021/05/28 00:24:44;;;;;;;29.65;13.23;;;8.60;99.90;;;;;;5019229;28;20099;-60
2021/05/28 00:27:09;;;;;;;23.55;11.77;;;8.60;99.90;;;;;;5029004;28;20041;-60
2021/05/28 00:29:35;;;;;;;24.10;11.90;;;8.60;99.90;;;;;;5023447;28;20129;-60
2021/05/28 00:32:04;;;;;;;29.60;11.80;;;8.60;99.90;;;;;;5022443;28;20099;-61
2021/05/28 00:34:29;;;;;;;20.65;11.40;;;8.70;99.90;;;;;;5006585;28;20534;-61
2021/05/28 00:36:55;;;;;;;24.65;11.98;;;8.70;99.90;;;;;;5020930;28;20064;-61
2021/05/28 00:39:20;;;;;;;24.58;12.82;;;8.80;99.90;;;;;;5021604;28;20030;-61
2021/05/28 00:41:46;;;;;;;25.80;12.80;;;8.80;99.90;;;;;;5028983;28;20412;-61
2021/05/28 00:44:12;;;;;;;19.05;10.75;;;8.70;99.90;;;;;;5022451;28;20410;-61
2021/05/28 00:46:38;;;;;;;25.30;12.57;;;8.70;99.90;;;;;;5012373;28;20052;-61
2021/05/28 00:49:04;;;;;;;21.13;12.13;;;8.70;99.90;;;;;;5019572;28;20125;-60
2021/05/28 00:51:30;;;;;;;33.50;12.63;;;8.70;99.90;;;;;;5026453;28;20061;-58
2021/05/28 00:53:55;;;;;;;24.85;11.65;;;8.70;99.90;;;;;;5019176;28;20029;-61
2021/05/28 00:56:24;;;;;;;22.13;12.52;;;8.70;99.90;;;;;;5025873;28;20104;-61
2021/05/28 00:58:57;;;;;;;26.77;12.45;;;8.70;99.90;;;;;;5018670;28;20057;-59
2021/05/28 01:01:23;;;;;;;27.58;13.45;;;8.80;99.90;;;;;;5021010;28;20022;-60
2021/05/28 01:03:48;;;;;;;27.52;13.77;;;8.80;99.90;;;;;;5017271;28;20030;-61
2021/05/28 01:06:14;;;;;;;25.67;13.50;;;8.70;99.90;;;;;;5025437;28;20034;-61
2021/05/28 01:08:39;;;;;;;31.23;14.73;;;8.70;99.90;;;;;;5018601;28;20163;-61
2021/05/28 01:11:05;;;;;;;23.38;13.20;;;8.70;99.90;;;;;;5030825;28;20104;-61
2021/05/28 01:13:30;;;;;;;29.83;14.13;;;8.70;99.90;;;;;;5022613;28;20046;-61
2021/05/28 01:15:56;;;;;;;29.08;14.80;;;8.70;99.90;;;;;;5016782;28;20026;-61
2021/05/28 01:18:21;;;;;;;29.20;13.90;;;8.70;99.90;;;;;;5011437;28;20467;-61
2021/05/28 01:20:47;;;;;;;26.08;12.70;;;8.60;99.90;;;;;;5013504;28;20491;-60
2021/05/28 01:23:13;;;;;;;24.25;12.60;;;8.70;99.90;;;;;;5010863;28;20126;-61
2021/05/28 01:25:39;;;;;;;26.55;12.68;;;8.70;99.90;;;;;;5013103;28;20100;-61
2021/05/28 01:28:05;;;;;;;23.05;12.13;;;8.70;99.90;;;;;;5020812;28;20106;-61
2021/05/28 01:30:30;;;;;;;19.00;11.25;;;8.80;99.90;;;;;;5018665;28;20559;-61
2021/05/28 01:32:56;;;;;;;24.02;11.75;;;8.80;99.90;;;;;;5014856;28;20026;-61
2021/05/28 01:35:22;;;;;;;28.70;12.27;;;8.80;99.90;;;;;;5014885;28;20050;-60
2021/05/28 01:37:47;;;;;;;28.30;12.40;;;8.70;99.90;;;;;;5000933;28;20121;-57
2021/05/28 01:40:14;;;;;;;25.30;12.70;;;8.70;99.90;;;;;;5017941;28;20041;-58
2021/05/28 01:42:39;;;;;;;23.45;12.38;;;8.60;99.90;;;;;;5023479;28;20021;-59
2021/05/28 01:45:06;;;;;;;25.30;12.98;;;8.50;99.90;;;;;;5014695;28;20022;-59
2021/05/28 01:47:32;;;;;;;32.25;14.40;;;8.50;99.90;;;;;;5016675;28;20041;-59
2021/05/28 01:49:58;;;;;;;26.02;14.45;;;8.40;99.90;;;;;;5015511;28;20029;-60
2021/05/28 01:52:24;;;;;;;23.75;13.52;;;8.40;99.90;;;;;;5010691;28;20030;-61
2021/05/28 01:54:51;;;;;;;34.53;13.85;;;8.30;99.90;;;;;;5019883;28;20064;-60
2021/05/28 01:57:17;;;;;;;34.15;15.20;;;8.30;99.90;;;;;;5026897;28;20025;-60
2021/05/28 01:59:45;;;;;;;33.15;15.57;;;8.20;99.90;;;;;;5019718;28;20030;-60
2021/05/28 02:02:12;;;;;;;32.95;16.60;;;8.20;99.90;;;;;;5028884;28;20033;-61
2021/05/28 02:04:38;;;;;;;25.63;15.35;;;8.20;99.90;;;;;;5029871;28;20383;-61
2021/05/28 02:07:04;;;;;;;32.08;15.77;;;8.20;99.90;;;;;;5019335;28;20108;-59
2021/05/28 02:09:30;;;;;;;32.80;16.00;;;8.20;99.90;;;;;;5017981;28;20034;-60
2021/05/28 02:11:57;;;;;;;34.97;17.55;;;8.10;99.90;;;;;;5023970;28;20067;-60
2021/05/28 02:14:24;;;;;;;30.55;15.43;;;8.10;99.90;;;;;;5020126;28;20095;-60
2021/05/28 02:16:50;;;;;;;33.60;16.50;;;8.10;99.90;;;;;;5019135;28;20039;-60
2021/05/28 02:19:15;;;;;;;33.80;17.00;;;8.00;99.90;;;;;;5018521;28;20109;-59
2021/05/28 02:21:41;;;;;;;30.98;16.60;;;8.00;99.90;;;;;;5024068;28;20494;-60
2021/05/28 02:24:11;;;;;;;31.08;17.67;;;7.90;99.90;;;;;;5024017;28;20037;-59
2021/05/28 02:26:37;;;;;;;28.98;16.08;;;7.90;99.90;;;;;;5025702;28;20061;-59
2021/05/28 02:29:03;;;;;;;24.13;15.07;;;7.90;99.90;;;;;;5013029;28;20045;-60
2021/05/28 02:31:28;;;;;;;27.02;14.80;;;8.00;99.90;;;;;;5019222;28;20431;-60
2021/05/28 02:33:54;;;;;;;23.73;13.85;;;8.00;99.90;;;;;;5017755;28;20133;-59
2021/05/28 02:36:19;;;;;;;24.27;14.18;;;8.00;99.90;;;;;;5012891;28;20088;-61
2021/05/28 02:38:45;;;;;;;31.73;13.73;;;7.90;99.90;;;;;;5021180;28;20080;-60
2021/05/28 02:41:10;;;;;;;29.70;14.15;;;8.00;99.90;;;;;;5019619;28;20026;-61
2021/05/28 02:43:36;;;;;;;21.67;12.23;;;7.90;99.90;;;;;;5023714;28;20381;-61
2021/05/28 02:46:03;;;;;;;33.72;14.50;;;7.80;99.90;;;;;;5022828;28;20182;-60
2021/05/28 02:48:28;;;;;;;21.75;12.80;;;7.70;99.90;;;;;;5016182;28;20030;-60
2021/05/28 02:50:54;;;;;;;32.72;15.35;;;7.70;99.90;;;;;;5028602;28;20094;-61
2021/05/28 02:53:19;;;;;;;32.35;14.98;;;7.60;99.90;;;;;;5020744;28;20534;-61
2021/05/28 02:55:45;;;;;;;27.48;14.68;;;7.60;99.90;;;;;;5026696;28;20119;-61
2021/05/28 02:58:11;;;;;;;34.33;14.32;;;7.50;99.90;;;;;;5018907;28;20491;-61
2021/05/28 03:00:37;;;;;;;29.42;15.43;;;7.50;99.90;;;;;;5018033;28;20130;-61
2021/05/28 03:03:03;;;;;;;26.02;13.88;;;7.50;99.90;;;;;;5014817;28;20041;-61
2021/05/28 03:05:29;;;;;;;22.27;13.60;;;7.50;99.90;;;;;;5012902;28;20030;-61
2021/05/28 03:07:55;;;;;;;24.35;13.30;;;7.50;99.90;;;;;;5032125;28;20028;-59
2021/05/28 03:10:20;;;;;;;19.23;12.95;;;7.60;99.90;;;;;;5021349;28;20033;-61
2021/05/28 03:12:46;;;;;;;28.65;14.43;;;7.50;99.90;;;;;;5019032;28;20038;-61
2021/05/28 03:15:12;;;;;;;25.08;13.88;;;7.40;99.90;;;;;;5021828;28;20026;-60
2021/05/28 03:17:42;;;;;;;24.80;13.48;;;7.30;99.90;;;;;;5015858;28;20456;-60
2021/05/28 03:20:17;;;;;;;22.63;13.13;;;7.30;99.90;;;;;;5016072;28;20443;-61
2021/05/28 03:22:42;;;;;;;29.67;15.18;;;7.30;99.90;;;;;;5018883;28;20105;-59
2021/05/28 03:25:12;;;;;;;22.27;13.05;;;7.30;99.90;;;;;;5022854;28;20097;-61
2021/05/28 03:27:39;;;;;;;18.98;12.20;;;7.30;99.90;;;;;;5035282;22;20111;-57
2021/05/28 03:30:07;;;;;;;25.83;13.55;;;7.30;99.90;;;;;;5026453;28;20029;-56
2021/05/28 03:32:33;;;;;;;19.70;12.88;;;7.40;99.90;;;;;;5018311;28;20065;-57
2021/05/28 03:34:58;;;;;;;21.60;11.27;;;7.40;99.90;;;;;;5017053;28;20479;-54
2021/05/28 03:37:25;;;;;;;29.90;15.50;;;7.40;99.90;;;;;;5025678;28;20030;-53
2021/05/28 03:39:51;;;;;;;18.65;11.30;;;7.40;99.90;;;;;;5023374;28;20048;-56
2021/05/28 03:42:17;;;;;;;25.40;12.85;;;7.40;99.90;;;;;;5026461;28;20555;-55
2021/05/28 03:44:43;;;;;;;24.33;12.90;;;7.40;99.90;;;;;;5029559;28;20037;-56
2021/05/28 03:47:09;;;;;;;25.50;15.15;;;7.30;99.90;;;;;;5013588;28;20510;-55
2021/05/28 03:49:35;;;;;;;32.92;14.65;;;7.30;99.90;;;;;;5018929;28;20034;-55
2021/05/28 03:52:01;;;;;;;30.30;16.10;;;7.30;99.90;;;;;;5023798;28;20021;-56
2021/05/28 03:54:27;;;;;;;35.67;17.55;;;7.20;99.90;;;;;;5021489;28;20037;-56
2021/05/28 03:56:52;;;;;;;34.03;18.73;;;7.20;99.90;;;;;;5019846;28;20193;-58
2021/05/28 03:59:18;;;;;;;26.70;17.23;;;7.20;99.90;;;;;;4997310;28;20116;-57
2021/05/28 04:01:43;;;;;;;35.60;19.17;;;7.20;99.90;;;;;;5020731;28;20022;-58
2021/05/28 04:04:09;;;;;;;33.33;19.52;;;7.30;99.90;;;;;;5019047;28;20029;-57
2021/05/28 04:06:35;;;;;;;38.35;19.80;;;7.30;99.90;;;;;;5018395;28;20034;-55
2021/05/28 04:09:00;;;;;;;34.75;17.15;;;7.30;99.90;;;;;;5014742;28;20032;-56
2021/05/28 04:11:26;;;;;;;31.95;17.38;;;7.40;99.90;;;;;;5028546;28;20037;-57
2021/05/28 04:13:52;;;;;;;26.08;16.75;;;7.50;99.90;;;;;;5018457;28;20034;-56
2021/05/28 04:16:17;;;;;;;23.45;14.93;;;7.60;99.90;;;;;;5024887;28;20022;-56
2021/05/28 04:18:43;;;;;;;30.02;15.27;;;7.60;99.90;;;;;;5014487;28;20030;-56
2021/05/28 04:21:09;;;;;;;22.88;14.45;;;7.70;99.90;;;;;;5020075;28;20026;-57
2021/05/28 04:23:34;;;;;;;23.95;16.08;;;7.70;99.90;;;;;;5018636;28;20018;-58
2021/05/28 04:26:00;;;;;;;27.98;16.08;;;7.70;99.90;;;;;;5017988;28;20030;-59
2021/05/28 04:28:27;;;;;;;28.48;16.92;;;7.80;99.90;;;;;;5022583;28;20034;-58
2021/05/28 04:30:54;;;;;;;31.42;17.13;;;7.90;99.90;;;;;;5022734;28;20029;-53
2021/05/28 04:33:20;;;;;;;24.88;14.45;;;7.90;99.90;;;;;;5020433;28;20498;-52
2021/05/28 04:35:45;;;;;;;35.17;19.17;;;8.00;99.90;;;;;;5028571;28;20044;-56
2021/05/28 04:38:11;;;;;;;35.08;19.05;;;8.00;99.90;;;;;;5021538;28;20584;-56
2021/05/28 04:40:37;;;;;;;37.25;20.33;;;8.10;99.90;;;;;;5015698;28;20038;-53
2021/05/28 04:43:02;;;;;;;48.38;21.58;;;8.20;99.90;;;;;;5023125;28;20026;-56
2021/05/28 04:45:28;;;;;;;53.40;23.20;;;8.20;99.90;;;;;;5022316;28;20038;-56
2021/05/28 04:47:54;;;;;;;46.28;24.27;;;8.30;99.90;;;;;;5023599;28;20038;-56
2021/05/28 04:50:20;;;;;;;41.97;24.48;;;8.40;99.90;;;;;;5024181;28;20063;-54
2021/05/28 04:52:46;;;;;;;51.75;25.10;;;8.40;99.90;;;;;;5026457;28;20034;-62
2021/05/28 04:55:13;;;;;;;40.83;24.27;;;8.40;99.90;;;;;;5022957;28;20018;-57
2021/05/28 04:57:39;;;;;;;48.65;26.33;;;8.50;99.90;;;;;;5010339;28;20033;-56
2021/05/28 05:00:05;;;;;;;41.47;25.40;;;8.50;99.90;;;;;;5013096;28;20097;-59
2021/05/28 05:02:31;;;;;;;44.90;25.25;;;8.60;99.90;;;;;;5000204;28;20125;-59
2021/05/28 05:04:57;;;;;;;54.17;27.10;;;8.60;99.90;;;;;;5021218;28;20109;-57
2021/05/28 05:07:22;;;;;;;50.70;28.10;;;8.70;99.90;;;;;;5012915;28;20232;-59
2021/05/28 05:09:48;;;;;;;56.00;27.30;;;8.70;99.90;;;;;;5010575;28;20095;-60
2021/05/28 05:12:14;;;;;;;51.85;26.77;;;8.80;99.90;;;;;;5021231;28;20036;-58
2021/05/28 05:14:39;;;;;;;48.75;27.48;;;8.80;99.90;;;;;;5022490;28;20037;-59
2021/05/28 05:17:05;;;;;;;52.45;29.25;;;8.90;99.90;;;;;;5014926;28;20452;-57
2021/05/28 05:19:30;;;;;;;52.53;28.52;;;8.90;99.90;;;;;;5015544;28;20336;-56
2021/05/28 05:21:56;;;;;;;52.47;28.08;;;9.00;99.90;;;;;;5012653;28;20034;-56
2021/05/28 05:24:21;;;;;;;51.38;28.38;;;9.00;99.90;;;;;;5000197;28;20026;-58
2021/05/28 05:26:47;;;;;;;51.28;29.58;;;9.10;99.90;;;;;;5013475;28;20033;-58
2021/05/28 05:29:13;;;;;;;54.95;29.55;;;9.10;99.90;;;;;;5011306;28;20113;-54
2021/05/28 05:31:40;;;;;;;52.38;30.38;;;9.20;99.90;;;;;;5010551;28;20030;-57
2021/05/28 05:34:06;;;;;;;59.85;32.63;;;9.30;99.90;;;;;;5011638;28;20440;-57
2021/05/28 05:36:34;;;;;;;68.38;34.42;;;9.30;99.90;;;;;;5010109;28;20037;-56
2021/05/28 05:39:00;;;;;;;58.13;29.73;;;9.40;99.90;;;;;;5007336;28;20029;-55
2021/05/28 05:41:26;;;;;;;64.47;33.97;;;9.50;99.90;;;;;;4996483;28;20030;-56
2021/05/28 05:43:51;;;;;;;60.70;33.45;;;9.50;99.90;;;;;;5011504;28;20117;-54
2021/05/28 05:46:17;;;;;;;60.20;33.75;;;9.60;99.90;;;;;;5022499;28;20040;-55
2021/05/28 05:48:43;;;;;;;67.28;33.97;;;9.70;99.90;;;;;;5026928;28;20033;-58
2021/05/28 05:51:09;;;;;;;68.85;34.10;;;9.70;99.90;;;;;;5025008;28;20017;-56
2021/05/28 05:53:34;;;;;;;61.17;34.53;;;9.80;99.90;;;;;;5015945;28;20507;-54
2021/05/28 05:56:00;;;;;;;73.05;38.38;;;9.80;99.90;;;;;;5015574;28;20033;-57
2021/05/28 05:58:25;;;;;;;63.22;34.80;;;9.90;99.90;;;;;;5013873;28;20148;-56
2021/05/28 06:00:51;;;;;;;59.42;33.47;;;9.90;99.90;;;;;;5015265;28;20100;-55
2021/05/28 06:03:17;;;;;;;68.68;34.08;;;10.00;99.90;;;;;;5020874;28;20022;-53
2021/05/28 06:05:43;;;;;;;67.53;34.15;;;10.10;99.90;;;;;;5006317;28;20026;-59
2021/05/28 06:08:08;;;;;;;66.82;35.10;;;10.10;99.90;;;;;;5017718;28;20403;-56
2021/05/28 06:10:34;;;;;;;58.70;33.15;;;10.20;99.90;;;;;;5018524;28;20491;-56
2021/05/28 06:13:04;;;;;;;60.38;31.88;;;10.30;99.90;;;;;;5015783;28;20026;-53
2021/05/28 06:15:30;;;;;;;63.42;31.23;;;10.30;99.90;;;;;;5029747;28;20104;-51
2021/05/28 06:17:56;;;;;;;55.58;30.60;;;10.40;99.90;;;;;;5029230;28;20542;-56
2021/05/28 06:20:22;;;;;;;69.25;29.45;;;10.40;99.90;;;;;;5015330;28;20160;-58
2021/05/28 06:22:48;;;;;;;50.80;26.35;;;10.50;99.90;;;;;;5014908;28;20030;-53
2021/05/28 06:25:14;;;;;;;51.10;26.38;;;10.60;99.90;;;;;;5016546;28;20113;-55
2021/05/28 06:27:40;;;;;;;59.13;27.77;;;10.60;99.90;;;;;;5014629;28;20187;-54
2021/05/28 06:30:06;;;;;;;55.45;26.67;;;10.70;99.90;;;;;;5019279;28;20042;-53
2021/05/28 06:32:31;;;;;;;53.28;25.00;;;10.80;99.90;;;;;;5018150;28;20176;-53
2021/05/28 06:34:57;;;;;;;46.13;23.98;;;11.00;99.90;;;;;;5016397;28;20104;-54
2021/05/28 06:37:22;;;;;;;41.78;22.05;;;11.20;99.90;;;;;;5020382;28;20030;-50
2021/05/28 06:39:48;;;;;;;41.38;22.35;;;11.30;99.90;;;;;;5015885;28;20026;-49
2021/05/28 06:42:14;;;;;;;43.10;22.13;;;11.30;99.90;;;;;;5011651;28;20041;-53
2021/05/28 06:44:39;;;;;;;50.10;22.20;;;11.40;99.90;;;;;;5014825;28;20037;-49
2021/05/28 06:47:05;;;;;;;47.30;23.95;;;11.40;99.90;;;;;;5016049;28;20231;-54
2021/05/28 06:49:30;;;;;;;46.25;23.50;;;11.50;99.90;;;;;;5015530;28;20044;-54
2021/05/28 06:51:56;;;;;;;40.15;22.15;;;11.60;99.90;;;;;;5017408;28;20503;-55
2021/05/28 06:54:21;;;;;;;58.80;24.20;;;11.60;99.90;;;;;;5015756;28;20061;-55
2021/05/28 06:56:47;;;;;;;50.58;24.75;;;11.60;99.90;;;;;;5013566;28;20053;-55
2021/05/28 06:59:13;;;;;;;53.55;24.15;;;11.60;99.90;;;;;;5014004;28;20026;-54
2021/05/28 07:01:39;;;;;;;40.20;19.45;;;11.70;99.90;;;;;;5014116;28;20032;-51
2021/05/28 07:04:04;;;;;;;42.22;21.20;;;11.70;99.90;;;;;;5014729;28;20033;-59
2021/05/28 07:06:31;;;;;;;31.42;18.50;;;11.70;99.90;;;;;;5018223;28;20029;-51
2021/05/28 07:08:57;;;;;;;40.58;20.35;;;11.80;99.90;;;;;;5020274;28;20041;-59
2021/05/28 07:11:24;;;;;;;40.13;19.80;;;11.90;99.90;;;;;;4994942;28;20030;-56
2021/05/28 07:13:50;;;;;;;35.85;17.52;;;12.00;99.90;;;;;;5013630;28;20030;-54
2021/05/28 07:16:15;;;;;;;26.38;14.40;;;12.00;99.90;;;;;;5025108;28;20503;-55
2021/05/28 07:18:41;;;;;;;27.63;16.00;;;12.10;99.90;;;;;;5032232;28;20068;-57
2021/05/28 07:21:07;;;;;;;26.02;15.18;;;12.10;99.90;;;;;;5030347;28;20036;-51
2021/05/28 07:23:32;;;;;;;39.17;17.70;;;12.10;99.90;;;;;;5024139;28;20029;-52
2021/05/28 07:26:00;;;;;;;35.30;17.73;;;12.10;99.90;;;;;;5028383;28;20108;-54
2021/05/28 07:28:27;;;;;;;31.50;16.23;;;12.10;99.90;;;;;;5032547;28;20483;-56
2021/05/28 07:30:53;;;;;;;35.60;17.20;;;12.10;99.90;;;;;;5000950;28;20119;-54
2021/05/28 07:33:19;;;;;;;30.00;15.82;;;12.10;99.90;;;;;;5025294;28;20110;-53
2021/05/28 07:35:45;;;;;;;22.00;13.65;;;12.20;99.90;;;;;;5016748;28;20139;-52
2021/05/28 07:38:10;;;;;;;27.73;14.07;;;12.20;99.90;;;;;;5020871;28;20506;-55
2021/05/28 07:40:37;;;;;;;30.95;16.13;;;12.30;99.90;;;;;;5017391;28;20033;-55
2021/05/28 07:43:03;;;;;;;24.27;13.35;;;12.40;99.90;;;;;;5013980;28;20064;-57
2021/05/28 07:45:28;;;;;;;31.95;14.40;;;12.50;99.90;;;;;;5013877;28;20054;-55
2021/05/28 07:47:54;;;;;;;34.30;15.23;;;12.50;99.90;;;;;;5014738;28;20029;-52
2021/05/28 07:50:20;;;;;;;27.17;14.40;;;12.60;99.90;;;;;;5026726;28;20721;-56
2021/05/28 07:52:46;;;;;;;40.78;15.45;;;12.70;99.90;;;;;;5020706;28;20063;-53
2021/05/28 07:55:11;;;;;;;36.75;14.43;;;12.80;99.90;;;;;;5012009;28;20055;-56
2021/05/28 07:57:38;;;;;;;30.40;14.10;;;13.00;99.90;;;;;;5013286;28;20120;-57
2021/05/28 08:00:05;;;;;;;20.30;11.73;;;13.10;99.90;;;;;;5016174;28;20104;-56
2021/05/28 08:02:32;;;;;;;36.97;13.50;;;13.10;99.90;;;;;;5014634;28;20495;-55
2021/05/28 08:04:57;;;;;;;21.85;11.95;;;13.20;99.90;;;;;;5015907;28;20490;-53
2021/05/28 08:07:23;;;;;;;19.00;11.85;;;13.30;99.90;;;;;;5013462;28;20026;-50
2021/05/28 08:09:49;;;;;;;20.67;11.90;;;13.40;99.90;;;;;;5018453;28;20041;-52
2021/05/28 08:12:18;;;;;;;20.48;12.50;;;13.50;99.90;;;;;;5025525;28;20079;-51
2021/05/28 08:14:44;;;;;;;21.80;12.75;;;13.60;99.90;;;;;;5017397;28;20033;-55
2021/05/28 08:17:10;;;;;;;22.40;11.75;;;13.60;99.90;;;;;;5031414;28;20022;-55
2021/05/28 08:19:35;;;;;;;21.60;11.70;;;13.70;99.90;;;;;;5025537;28;20767;-56
2021/05/28 08:22:01;;;;;;;22.63;10.68;;;13.70;99.90;;;;;;5016161;28;20022;-51
2021/05/28 08:24:27;;;;;;;22.75;11.27;;;13.80;99.90;;;;;;5013100;28;20083;-55
2021/05/28 08:26:52;;;;;;;16.98;9.88;;;13.60;99.90;;;;;;5015220;28;20034;-54
2021/05/28 08:29:18;;;;;;;18.35;9.85;;;13.60;99.90;;;;;;5016363;28;20151;-52
2021/05/28 08:31:44;;;;;;;21.30;10.50;;;13.70;99.90;;;;;;5015665;28;20084;-54
2021/05/28 08:34:10;;;;;;;16.52;8.98;;;13.70;99.90;;;;;;5013594;28;20037;-56
2021/05/28 08:36:35;;;;;;;18.92;10.35;;;13.90;99.90;;;;;;5014735;28;20446;-54
2021/05/28 08:39:01;;;;;;;19.23;8.38;;;14.00;99.90;;;;;;5024106;28;20095;-54
2021/05/28 08:41:27;;;;;;;17.23;8.73;;;14.00;99.90;;;;;;5015449;28;20061;-52
2021/05/28 08:43:53;;;;;;;14.95;8.07;;;14.00;99.90;;;;;;5025273;28;20112;-50
2021/05/28 08:46:20;;;;;;;15.05;8.32;;;14.10;99.90;;;;;;5024467;28;20439;-64
2021/05/28 08:48:50;;;;;;;16.52;7.65;;;14.20;99.90;;;;;;5022156;28;20049;-65
2021/05/28 08:51:15;;;;;;;16.00;6.95;;;14.20;99.90;;;;;;5011638;28;20033;-66
2021/05/28 08:53:41;;;;;;;21.27;9.13;;;14.10;99.90;;;;;;4998901;28;20112;-65
2021/05/28 08:56:10;;;;;;;15.13;8.23;;;14.20;99.90;;;;;;5015172;28;20038;-64
2021/05/28 08:58:36;;;;;;;13.68;8.07;;;14.40;99.90;;;;;;5012582;28;20037;-65
2021/05/28 09:01:03;;;;;;;20.42;9.02;;;14.60;99.90;;;;;;5010315;28;20029;-66
2021/05/28 09:03:32;;;;;;;14.00;8.45;;;14.80;99.90;;;;;;5017744;28;20113;-66
2021/05/28 09:06:00;;;;;;;14.68;7.30;;;15.00;99.90;;;;;;5016410;28;20361;-65
2021/05/28 09:08:31;;;;;;;19.15;8.10;;;15.00;99.90;;;;;;5015409;28;20496;-65
2021/05/28 09:11:08;;;;;;;31.15;16.58;;;15.10;99.90;;;;;;5022191;28;20037;-67
2021/05/28 09:13:41;;;;;;;15.18;7.95;;;15.00;99.90;;;;;;5026382;28;20029;-65
2021/05/28 09:16:15;;;;;;;16.92;7.75;;;14.80;99.90;;;;;;5012395;28;20034;-63
2021/05/28 09:18:49;;;;;;;12.43;6.50;;;14.80;99.90;;;;;;5019417;28;20033;-64
2021/05/28 09:21:24;;;;;;;15.00;8.70;;;14.90;99.90;;;;;;5015308;28;20341;-61
2021/05/28 09:23:53;;;;;;;17.38;8.35;;;14.80;99.90;;;;;;5014482;28;20483;-64
2021/05/28 09:26:18;;;;;;;18.35;9.02;;;14.80;99.90;;;;;;5033127;22;20039;-63
2021/05/28 09:28:48;;;;;;;17.23;9.43;;;14.80;99.90;;;;;;5011562;28;20433;-61
2021/05/28 09:31:25;;;;;;;19.98;8.95;;;14.50;99.90;;;;;;5010141;28;20040;-62
2021/05/28 09:33:52;;;;;;;15.45;8.38;;;14.70;99.90;;;;;;5010223;28;20061;-62
2021/05/28 09:36:32;;;;;;;14.55;7.50;;;14.90;99.90;;;;;;5006422;28;20028;-61
2021/05/28 09:39:11;;;;;;;18.00;8.48;;;15.00;99.90;;;;;;5016949;28;20057;-62
2021/05/28 09:41:48;;;;;;;17.50;8.85;;;15.20;99.90;;;;;;5011530;28;20025;-62
2021/05/28 09:44:22;;;;;;;16.45;9.00;;;15.00;99.90;;;;;;5007776;28;20427;-61
2021/05/28 09:46:56;;;;;;;16.85;7.43;;;14.80;99.90;;;;;;5001462;28;20153;-61
2021/05/28 09:49:25;;;;;;;15.35;7.63;;;14.90;99.90;;;;;;5013620;28;20053;-62
2021/05/28 09:52:07;;;;;;;15.63;6.90;;;14.90;99.90;;;;;;5026925;28;20513;-60
2021/05/28 09:54:33;;;;;;;13.30;7.60;;;14.90;99.90;;;;;;4991194;28;20038;-62
2021/05/28 09:56:59;;;;;;;15.25;7.50;;;15.00;99.90;;;;;;4992505;28;20456;-62
2021/05/28 09:59:24;;;;;;;11.65;7.10;;;15.00;99.90;;;;;;5010273;28;20049;-62
2021/05/28 10:01:56;;;;;;;18.42;6.72;;;15.40;99.90;;;;;;5015336;28;20097;-60
2021/05/28 10:04:22;;;;;;;13.05;6.05;;;15.80;99.90;;;;;;5014283;28;20021;-61
2021/05/28 10:06:49;;;;;;;13.45;6.15;;;16.30;99.90;;;;;;5013696;28;20053;-60
2021/05/28 10:09:16;;;;;;;36.47;7.03;;;16.50;99.90;;;;;;5019354;28;20056;-60
2021/05/28 10:11:42;;;;;;;89.60;10.35;;;16.90;99.90;;;;;;5017337;28;20032;-61
2021/05/28 10:14:09;;;;;;;8.68;4.15;;;17.10;99.90;;;;;;5019865;28;20418;-62
2021/05/28 10:16:36;;;;;;;37.50;5.40;;;17.30;99.90;;;;;;5010926;28;20029;-62
2021/05/28 10:19:02;;;;;;;48.80;7.70;;;17.50;99.90;;;;;;5012451;28;20029;-59
2021/05/28 10:21:28;;;;;;;7.75;4.53;;;17.90;99.90;;;;;;5012373;28;20033;-60
2021/05/28 10:23:54;;;;;;;10.88;4.20;;;18.30;99.90;;;;;;5018666;28;20018;-52
2021/05/28 10:26:30;;;;;;;7.13;3.78;;;18.70;99.90;;;;;;5010616;28;20041;-53
2021/05/28 10:28:57;;;;;;;12.85;4.03;;;18.90;99.90;;;;;;5004221;28;20033;-55
2021/05/28 10:31:51;;;;;;;705.42;64.38;;;19.00;99.90;;;;;;5014389;28;20021;-55
2021/05/28 10:34:17;;;;;;;48.17;6.20;;;18.90;99.90;;;;;;5021861;28;20029;-55
2021/05/28 10:36:45;;;;;;;9.35;4.10;;;19.10;99.90;;;;;;5016726;28;20052;-55
2021/05/28 10:39:13;;;;;;;11.52;4.47;;;19.40;99.90;;;;;;5012857;28;20021;-54
2021/05/28 10:41:51;;;;;;;9.15;4.13;;;19.50;99.90;;;;;;5011565;28;20028;-56
2021/05/28 10:44:21;;;;;;;7.18;4.07;;;19.60;99.90;;;;;;5009184;28;20388;-54
2021/05/28 10:47:09;;;;;;;36.03;6.50;;;19.70;99.90;;;;;;5027841;28;20146;-56
2021/05/28 10:49:38;;;;;;;12.35;4.47;;;20.00;99.90;;;;;;5026263;28;20033;-55
2021/05/28 10:52:05;;;;;;;9.98;4.40;;;20.10;99.90;;;;;;5026654;28;20083;-54
2021/05/28 10:54:32;;;;;;;7.47;4.10;;;20.20;99.90;;;;;;5024953;28;20111;-56
2021/05/28 10:57:19;;;;;;;5.80;4.22;;;19.90;99.90;;;;;;5022123;28;20034;-57
2021/05/28 10:59:49;;;;;;;7.28;4.07;;;20.10;99.90;;;;;;5023415;28;20145;-53
2021/05/28 11:02:35;;;;;;;10.70;3.90;;;20.30;99.90;;;;;;5026708;28;20546;-55
2021/05/28 11:05:01;;;;;;;5.53;3.80;;;19.80;99.90;;;;;;5028156;28;20044;-53
2021/05/28 11:07:34;;;;;;;7.20;3.83;;;19.10;99.90;;;;;;5028529;28;20033;-52
2021/05/28 11:10:17;;;;;;;10.98;3.75;;;19.10;99.90;;;;;;5011138;28;20022;-53
2021/05/28 11:12:42;;;;;;;8.32;4.10;;;19.50;99.90;;;;;;5016373;28;20036;-56
2021/05/28 11:15:10;;;;;;;7.35;4.07;;;19.60;99.90;;;;;;5016963;28;20033;-56
2021/05/28 11:17:54;;;;;;;7.38;4.53;;;19.50;99.90;;;;;;5013834;28;20109;-51
2021/05/28 11:20:27;;;;;;;7.88;3.58;;;19.80;99.90;;;;;;5019303;28;20515;-53
2021/05/28 11:22:52;;;;;;;11.90;4.03;;;20.30;99.90;;;;;;5020346;28;20171;-56
2021/05/28 11:25:21;;;;;;;6.63;3.30;;;20.30;99.90;;;;;;5018786;28;20428;-56
2021/05/28 11:28:08;;;;;;;13.75;3.60;;;19.70;99.90;;;;;;5024115;28;20045;-54
2021/05/28 11:30:51;;;;;;;12.70;3.50;;;19.90;99.90;;;;;;5014899;28;20034;-55
2021/05/28 11:33:32;;;;;;;6.93;2.92;;;19.60;99.90;;;;;;5022514;28;20754;-56
2021/05/28 11:35:58;;;;;;;4.60;2.83;;;19.50;99.90;;;;;;5018493;28;20135;-56
2021/05/28 11:38:36;;;;;;;4.28;3.05;;;19.30;99.90;;;;;;5024339;28;20036;-56
2021/05/28 11:41:02;;;;;;;6.13;2.70;;;19.70;99.90;;;;;;5025992;28;20030;-55
2021/05/28 11:43:34;;;;;;;5.35;3.05;;;20.20;99.90;;;;;;5023256;28;20087;-54
2021/05/28 11:45:59;;;;;;;3.58;2.88;;;20.50;99.90;;;;;;5021980;28;20062;-55
2021/05/28 11:48:27;;;;;;;2.83;1.45;;;20.50;99.90;;;;;;5022267;28;20068;-53
2021/05/28 11:51:02;;;;;;;2.83;2.17;;;20.10;99.90;;;;;;5024286;28;20402;-55
2021/05/28 11:53:37;;;;;;;9.13;2.70;;;19.80;99.90;;;;;;5022254;28;20415;-54
2021/05/28 11:56:03;;;;;;;3.25;2.30;;;19.40;99.90;;;;;;5020601;28;20033;-55
2021/05/28 11:58:32;;;;;;;2.45;1.77;;;19.80;99.90;;;;;;5023092;28;20586;-52
2021/05/28 12:01:00;;;;;;;7.50;2.80;;;20.00;99.90;;;;;;5021627;28;20021;-56
2021/05/28 12:03:25;;;;;;;6.07;2.60;;;19.70;99.90;;;;;;5003154;28;20022;-55
2021/05/28 12:05:52;;;;;;;4.20;2.47;;;19.60;99.90;;;;;;5021226;28;20025;-56
2021/05/28 12:08:28;;;;;;;3.42;2.63;;;19.80;99.90;;;;;;5017311;28;20076;-58
2021/05/28 12:10:59;;;;;;;8.30;2.92;;;20.30;99.90;;;;;;5019368;28;20037;-56
2021/05/28 12:13:25;;;;;;;3.35;1.85;;;20.30;99.90;;;;;;5021632;28;20298;-56
2021/05/28 12:15:58;;;;;;;9.25;2.00;;;20.70;99.90;;;;;;5014339;28;20106;-58
2021/05/28 12:18:40;;;;;;;15.98;3.00;;;21.00;99.90;;;;;;5006055;28;20038;-57
2021/05/28 12:21:07;;;;;;;5.53;2.08;;;20.80;99.90;;;;;;5013534;28;20044;-53
2021/05/28 12:23:37;;;;;;;2.78;2.03;;;21.10;99.60;;;;;;5013845;28;20117;-56
2021/05/28 12:26:09;;;;;;;5.22;1.75;;;21.00;99.90;;;;;;5020636;28;20398;-55
2021/05/28 12:28:39;;;;;;;2.95;2.20;;;21.30;99.90;;;;;;5023236;28;20124;-55
2021/05/28 12:31:10;;;;;;;4.13;2.10;;;21.30;99.90;;;;;;5023761;28;20055;-54
2021/05/28 12:33:38;;;;;;;3.50;2.08;;;21.80;98.20;;;;;;5016474;28;20047;-55
2021/05/28 12:36:07;;;;;;;2.42;1.58;;;22.00;97.20;;;;;;5013154;28;20495;-58